createdAt,value
2023-05-04T00:01:31.411Z,100.00
2023-05-04T00:03:58.185Z,100.00
2023-05-04T00:06:24.958Z,100.00
2023-05-04T00:08:52.538Z,100.00
2023-05-04T00:11:19.226Z,100.00
2023-05-04T00:13:55.236Z,100.00
2023-05-04T00:16:22.127Z,100.00
2023-05-04T00:18:48.881Z,100.00
2023-05-04T00:21:18.092Z,100.00
2023-05-04T00:23:46.796Z,100.00
2023-05-04T00:26:13.278Z,100.00
2023-05-04T00:28:39.986Z,100.00
2023-05-04T00:31:06.648Z,100.00
2023-05-04T00:33:33.329Z,100.00
2023-05-04T00:36:00.292Z,100.00
2023-05-04T00:38:26.721Z,100.00
2023-05-04T00:40:54.085Z,100.00
2023-05-04T00:43:20.767Z,100.00
2023-05-04T00:45:48.179Z,100.00
2023-05-04T00:48:15.537Z,100.00
2023-05-04T00:50:42.234Z,100.00
2023-05-04T00:53:10.600Z,100.00
2023-05-04T00:55:40.976Z,100.00
2023-05-04T00:58:14.467Z,100.00
2023-05-04T01:00:41.135Z,100.00
2023-05-04T01:03:10.154Z,100.00
2023-05-04T01:05:44.901Z,100.00
2023-05-04T01:08:18.974Z,100.00
2023-05-04T01:10:52.361Z,100.00
2023-05-04T01:13:21.882Z,100.00
2023-05-04T01:15:50.204Z,100.00
2023-05-04T01:18:17.312Z,100.00
2023-05-04T01:20:44.322Z,100.00
2023-05-04T01:23:11.722Z,100.00
2023-05-04T01:25:48.533Z,100.00
2023-05-04T01:28:44.961Z,100.00
2023-05-04T01:31:17.645Z,100.00
2023-05-04T01:33:45.270Z,100.00
2023-05-04T01:36:11.882Z,100.00
2023-05-04T01:38:39.769Z,100.00
2023-05-04T01:41:06.318Z,100.00
2023-05-04T01:43:33.130Z,100.00
2023-05-04T01:45:59.662Z,100.00
2023-05-04T01:48:28.723Z,100.00
2023-05-04T01:50:55.344Z,100.00
2023-05-04T01:53:21.868Z,100.00
2023-05-04T01:55:48.851Z,100.00
2023-05-04T01:58:15.283Z,100.00
2023-05-04T02:00:41.794Z,100.00
2023-05-04T02:03:08.645Z,100.00
2023-05-04T02:05:35.316Z,100.00
2023-05-04T02:08:01.926Z,100.00
2023-05-04T02:10:30.648Z,100.00
2023-05-04T02:12:57.969Z,100.00
2023-05-04T02:15:24.490Z,100.00
2023-05-04T02:17:50.922Z,100.00
2023-05-04T02:20:17.850Z,100.00
2023-05-04T02:22:46.204Z,100.00
2023-05-04T02:25:13.861Z,100.00
2023-05-04T02:27:40.405Z,100.00
2023-05-04T02:30:08.042Z,100.00
2023-05-04T02:32:34.697Z,100.00
2023-05-04T02:35:01.766Z,100.00
2023-05-04T02:37:28.638Z,100.00
2023-05-04T02:39:55.456Z,100.00
2023-05-04T02:42:22.052Z,100.00
2023-05-04T02:44:48.637Z,100.00
2023-05-04T02:47:15.982Z,100.00
2023-05-04T02:49:42.483Z,100.00
2023-05-04T02:52:10.222Z,100.00
2023-05-04T02:54:36.729Z,100.00
2023-05-04T02:57:03.863Z,100.00
2023-05-04T02:59:30.449Z,100.00
2023-05-04T03:01:57.095Z,100.00
2023-05-04T03:04:23.965Z,100.00
2023-05-04T03:06:50.404Z,100.00
2023-05-04T03:09:16.853Z,100.00
2023-05-04T03:11:44.912Z,100.00
2023-05-04T03:14:11.796Z,100.00
2023-05-04T03:16:38.318Z,100.00
2023-05-04T03:19:04.969Z,100.00
2023-05-04T03:21:32.652Z,100.00
2023-05-04T03:23:59.432Z,100.00
2023-05-04T03:26:26.096Z,100.00
2023-05-04T03:28:52.857Z,100.00
2023-05-04T03:31:19.397Z,100.00
2023-05-04T03:33:48.303Z,100.00
2023-05-04T03:36:14.907Z,100.00
2023-05-04T03:38:41.390Z,100.00
2023-05-04T03:41:08.245Z,100.00
2023-05-04T03:43:35.132Z,100.00
2023-05-04T03:46:01.757Z,100.00
2023-05-04T03:48:28.594Z,100.00
2023-05-04T03:50:55.512Z,100.00
2023-05-04T03:53:22.069Z,100.00
2023-05-04T03:55:49.010Z,100.00
2023-05-04T03:58:15.382Z,100.00
2023-05-04T04:00:43.005Z,100.00
2023-05-04T04:03:09.785Z,100.00
2023-05-04T04:05:36.575Z,100.00
2023-05-04T04:08:03.755Z,100.00
2023-05-04T04:10:31.172Z,100.00
2023-05-04T04:12:57.842Z,100.00
2023-05-04T04:15:24.505Z,100.00
2023-05-04T04:17:51.208Z,100.00
2023-05-04T04:20:18.191Z,100.00
2023-05-04T04:22:44.689Z,100.00
2023-05-04T04:25:11.603Z,100.00
2023-05-04T04:27:38.132Z,100.00
2023-05-04T04:30:05.550Z,100.00
2023-05-04T04:32:32.316Z,100.00
2023-05-04T04:34:59.045Z,100.00
2023-05-04T04:37:25.613Z,100.00
2023-05-04T04:39:52.794Z,100.00
2023-05-04T04:42:19.784Z,100.00
2023-05-04T04:44:47.013Z,100.00
2023-05-04T04:47:13.795Z,100.00
2023-05-04T04:49:40.403Z,100.00
2023-05-04T04:52:06.905Z,100.00
2023-05-04T04:54:33.481Z,100.00
2023-05-04T04:57:01.957Z,100.00
2023-05-04T04:59:28.506Z,100.00
2023-05-04T05:01:55.091Z,100.00
2023-05-04T05:04:21.830Z,100.00
2023-05-04T05:06:48.684Z,100.00
2023-05-04T05:09:15.988Z,100.00
2023-05-04T05:11:43.503Z,100.00
2023-05-04T05:14:10.110Z,100.00
2023-05-04T05:16:37.095Z,100.00
2023-05-04T05:19:03.971Z,100.00
2023-05-04T05:21:30.853Z,100.00
2023-05-04T05:23:57.754Z,100.00
2023-05-04T05:26:24.673Z,100.00
2023-05-04T05:28:51.296Z,100.00
2023-05-04T05:31:17.959Z,100.00
2023-05-04T05:33:44.625Z,100.00
2023-05-04T05:36:11.226Z,100.00
2023-05-04T05:38:38.247Z,100.00
2023-05-04T05:41:05.231Z,100.00
2023-05-04T05:43:31.745Z,100.00
2023-05-04T05:45:58.798Z,100.00
2023-05-04T05:48:25.282Z,100.00
2023-05-04T05:50:52.126Z,100.00
2023-05-04T05:53:18.571Z,100.00
2023-05-04T05:55:46.715Z,100.00
2023-05-04T05:58:13.632Z,100.00
2023-05-04T06:00:40.212Z,100.00
2023-05-04T06:03:08.971Z,100.00
2023-05-04T06:05:37.926Z,100.00
2023-05-04T06:08:05.943Z,100.00
2023-05-04T06:10:32.513Z,100.00
2023-05-04T06:12:59.454Z,100.00
2023-05-04T06:15:28.193Z,100.00
2023-05-04T06:17:57.842Z,100.00
2023-05-04T06:20:24.807Z,97.62
2023-05-04T06:22:51.339Z,100.00
2023-05-04T06:25:17.840Z,100.00
2023-05-04T06:27:44.831Z,100.00
2023-05-04T06:30:12.155Z,100.00
2023-05-04T06:32:38.897Z,100.00
2023-05-04T06:35:06.995Z,96.62
2023-05-04T06:37:33.854Z,100.00
2023-05-04T06:40:01.588Z,100.00
2023-05-04T06:42:31.397Z,97.40
2023-05-04T06:44:58.197Z,100.00
2023-05-04T06:47:25.001Z,95.24
2023-05-04T06:49:52.024Z,95.12
2023-05-04T06:52:18.664Z,98.20
2023-05-04T06:54:45.142Z,96.94
2023-05-04T06:57:12.200Z,98.83
2023-05-04T06:59:38.964Z,100.00
2023-05-04T07:02:05.417Z,100.00
2023-05-04T07:04:32.178Z,100.00
2023-05-04T07:06:59.810Z,100.00
2023-05-04T07:09:26.509Z,100.00
2023-05-04T07:11:53.410Z,100.00
2023-05-04T07:14:20.956Z,100.00
2023-05-04T07:16:47.560Z,100.00
2023-05-04T07:19:14.249Z,100.00
2023-05-04T07:21:41.696Z,100.00
2023-05-04T07:24:08.255Z,100.00
2023-05-04T07:26:36.004Z,100.00
2023-05-04T07:29:02.611Z,100.00
2023-05-04T07:31:30.568Z,100.00
2023-05-04T07:33:57.942Z,100.00
2023-05-04T07:36:24.792Z,100.00
2023-05-04T07:38:51.414Z,100.00
2023-05-04T07:41:17.959Z,100.00
2023-05-04T07:43:44.729Z,100.00
2023-05-04T07:46:11.362Z,99.43
2023-05-04T07:48:38.160Z,98.73
2023-05-04T07:51:04.770Z,98.10
2023-05-04T07:53:31.549Z,95.08
2023-05-04T07:55:58.198Z,94.20
2023-05-04T07:58:25.043Z,94.52
2023-05-04T08:00:52.034Z,91.52
2023-05-04T08:03:20.880Z,88.70
2023-05-04T08:05:47.514Z,90.72
2023-05-04T08:08:14.380Z,87.54
2023-05-04T08:10:41.276Z,89.34
2023-05-04T08:13:08.178Z,89.08
2023-05-04T08:15:35.498Z,87.08
2023-05-04T08:18:02.396Z,88.56
2023-05-04T08:20:29.362Z,88.50
2023-05-04T08:22:56.428Z,84.27
2023-05-04T08:25:23.245Z,86.56
2023-05-04T08:27:50.035Z,83.97
2023-05-04T08:30:17.001Z,80.80
2023-05-04T08:32:46.217Z,80.66
2023-05-04T08:35:13.403Z,81.54
2023-05-04T08:37:40.652Z,81.89
2023-05-04T08:40:08.791Z,75.65
2023-05-04T08:42:35.700Z,78.75
2023-05-04T08:45:03.237Z,76.35
2023-05-04T08:47:29.941Z,72.86
2023-05-04T08:49:56.983Z,69.01
2023-05-04T08:52:25.088Z,68.34
2023-05-04T08:54:53.748Z,73.12
2023-05-04T08:57:25.479Z,66.94
2023-05-04T08:59:54.272Z,64.44
2023-05-04T09:02:23.057Z,57.11
2023-05-04T09:04:51.221Z,56.43
2023-05-04T09:07:22.056Z,53.40
2023-05-04T09:09:48.915Z,53.93
2023-05-04T09:12:17.421Z,50.95
2023-05-04T09:14:44.576Z,50.23
2023-05-04T09:17:16.673Z,52.23
2023-05-04T09:19:44.396Z,50.49
2023-05-04T09:22:15.810Z,49.72
2023-05-04T09:24:42.611Z,48.44
2023-05-04T09:27:13.804Z,48.40
2023-05-04T09:29:41.997Z,45.54
2023-05-04T09:32:13.162Z,45.15
2023-05-04T09:34:52.980Z,42.98
2023-05-04T09:37:20.788Z,44.43
2023-05-04T09:39:59.401Z,44.18
2023-05-04T09:42:27.082Z,45.07
2023-05-04T09:45:04.607Z,43.75
2023-05-04T09:47:40.043Z,42.67
2023-05-04T09:50:22.489Z,42.78
2023-05-04T09:52:50.400Z,41.72
2023-05-04T09:55:22.905Z,41.04
2023-05-04T09:57:50.089Z,40.71
2023-05-04T10:00:17.840Z,41.12
2023-05-04T10:02:46.078Z,41.19
2023-05-04T10:05:17.433Z,41.74
2023-05-04T10:07:47.532Z,41.64
2023-05-04T10:10:16.380Z,38.64
2023-05-04T10:12:44.911Z,39.21
2023-05-04T10:15:13.103Z,39.03
2023-05-04T10:18:10.109Z,38.89
2023-05-04T10:20:46.447Z,39.41
2023-05-04T10:23:43.553Z,39.94
2023-05-04T10:26:48.248Z,38.72
2023-05-04T10:29:23.743Z,38.83
2023-05-04T10:31:53.640Z,39.45
2023-05-04T10:34:34.620Z,39.34
2023-05-04T10:37:02.513Z,38.58
2023-05-04T10:39:33.934Z,37.19
2023-05-04T10:42:05.112Z,36.88
2023-05-04T10:44:34.735Z,37.45
2023-05-04T10:47:08.088Z,38.77
2023-05-04T10:49:38.237Z,38.40
2023-05-04T10:52:22.795Z,38.43
2023-05-04T10:54:59.389Z,37.41
2023-05-04T10:57:27.776Z,37.60
2023-05-04T10:59:56.444Z,37.73
2023-05-04T11:02:25.982Z,38.94
2023-05-04T11:05:03.884Z,36.59
2023-05-04T11:07:40.443Z,37.40
2023-05-04T11:10:20.292Z,37.39
2023-05-04T11:12:47.466Z,38.07
2023-05-04T11:15:14.762Z,38.11
2023-05-04T11:17:53.417Z,37.12
2023-05-04T11:20:22.198Z,37.95
2023-05-04T11:22:49.482Z,37.78
2023-05-04T11:25:16.710Z,37.20
2023-05-04T11:27:44.236Z,37.29
2023-05-04T11:30:14.436Z,35.58
2023-05-04T11:32:45.320Z,36.72
2023-05-04T11:35:20.470Z,37.15
2023-05-04T11:37:48.956Z,38.41
2023-05-04T11:40:20.295Z,36.77
2023-05-04T11:42:47.697Z,37.39
2023-05-04T11:45:19.695Z,37.70
2023-05-04T11:47:49.071Z,37.27
2023-05-04T11:50:20.476Z,37.94
2023-05-04T11:52:47.990Z,37.88
2023-05-04T11:55:28.627Z,38.25
2023-05-04T11:58:03.621Z,38.86
2023-05-04T12:00:46.248Z,40.29
2023-05-04T12:03:15.410Z,38.58
2023-05-04T12:05:51.195Z,39.48
2023-05-04T12:08:27.019Z,38.23
2023-05-04T12:11:23.570Z,39.18
2023-05-04T12:14:13.142Z,39.19
2023-05-04T12:16:40.217Z,40.05
2023-05-04T12:19:11.738Z,40.98
2023-05-04T12:21:50.161Z,39.65
2023-05-04T12:24:16.807Z,38.82
2023-05-04T12:26:43.486Z,38.68
2023-05-04T12:29:15.880Z,39.59
2023-05-04T12:31:46.005Z,38.51
2023-05-04T12:34:14.171Z,39.68
2023-05-04T12:36:41.599Z,40.85
2023-05-04T12:39:08.637Z,40.90
2023-05-04T12:41:35.336Z,40.89
2023-05-04T12:44:02.249Z,41.80
2023-05-04T12:46:28.963Z,41.16
2023-05-04T12:48:55.652Z,40.47
2023-05-04T12:51:22.485Z,39.79
2023-05-04T12:53:49.323Z,40.97
2023-05-04T12:56:16.025Z,40.64
2023-05-04T12:58:43.039Z,41.23
2023-05-04T13:01:09.931Z,41.22
2023-05-04T13:03:36.910Z,43.48
2023-05-04T13:06:03.761Z,42.16
2023-05-04T13:08:30.361Z,43.25
2023-05-04T13:10:56.955Z,41.15
2023-05-04T13:13:23.936Z,41.93
2023-05-04T13:15:51.388Z,41.35
2023-05-04T13:18:18.098Z,40.54
2023-05-04T13:20:44.694Z,41.27
2023-05-04T13:23:11.437Z,42.90
2023-05-04T13:25:38.066Z,40.91
2023-05-04T13:28:05.021Z,42.16
2023-05-04T13:30:31.714Z,41.56
2023-05-04T13:32:58.664Z,41.58
2023-05-04T13:35:26.996Z,42.76
2023-05-04T13:37:55.343Z,42.22
2023-05-04T13:40:22.197Z,39.64
2023-05-04T13:42:48.957Z,40.94
2023-05-04T13:45:20.006Z,40.55
2023-05-04T13:47:46.852Z,41.92
2023-05-04T13:50:13.923Z,39.30
2023-05-04T13:52:40.851Z,39.37
2023-05-04T13:55:09.629Z,38.42
2023-05-04T13:57:37.858Z,39.42
2023-05-04T14:00:08.780Z,39.12
2023-05-04T14:02:35.901Z,39.21
2023-05-04T14:05:04.382Z,38.75
2023-05-04T14:07:31.539Z,38.35
2023-05-04T14:10:02.223Z,37.96
2023-05-04T14:12:29.165Z,37.88
2023-05-04T14:14:57.198Z,36.82
2023-05-04T14:17:23.867Z,36.88
2023-05-04T14:19:50.700Z,37.13
2023-05-04T14:22:19.810Z,37.66
2023-05-04T14:24:46.774Z,37.67
2023-05-04T14:27:13.786Z,37.83
2023-05-04T14:29:40.604Z,35.69
2023-05-04T14:32:07.298Z,36.01
2023-05-04T14:34:34.041Z,35.35
2023-05-04T14:37:00.611Z,35.42
2023-05-04T14:39:27.168Z,35.19
2023-05-04T14:41:55.852Z,35.75
2023-05-04T14:44:22.601Z,36.21
2023-05-04T14:46:49.328Z,35.83
2023-05-04T14:49:28.393Z,35.58
2023-05-04T14:52:02.801Z,36.24
2023-05-04T14:54:31.010Z,35.14
2023-05-04T14:56:57.704Z,36.24
2023-05-04T14:59:27.159Z,36.15
2023-05-04T15:01:53.674Z,36.38
2023-05-04T15:04:20.245Z,35.42
2023-05-04T15:06:50.789Z,35.71
2023-05-04T15:09:17.365Z,35.83
2023-05-04T15:11:43.939Z,36.42
2023-05-04T15:14:10.613Z,36.49
2023-05-04T15:16:37.639Z,35.24
2023-05-04T15:19:04.298Z,35.45
2023-05-04T15:21:30.905Z,35.44
2023-05-04T15:23:57.720Z,35.67
2023-05-04T15:26:24.215Z,35.65
2023-05-04T15:28:53.917Z,35.67
2023-05-04T15:31:23.474Z,35.85
2023-05-04T15:33:51.389Z,36.46
2023-05-04T15:36:18.026Z,37.26
2023-05-04T15:38:44.809Z,37.25
2023-05-04T15:41:11.393Z,36.90
2023-05-04T15:43:38.027Z,36.01
2023-05-04T15:46:04.906Z,35.89
2023-05-04T15:48:31.645Z,35.94
2023-05-04T15:50:58.143Z,36.40
2023-05-04T15:53:24.743Z,36.08
2023-05-04T15:55:51.342Z,36.01
2023-05-04T15:58:18.174Z,36.44
2023-05-04T16:00:45.067Z,37.10
2023-05-04T16:03:12.435Z,37.51
2023-05-04T16:05:39.291Z,37.64
2023-05-04T16:08:06.360Z,36.83
2023-05-04T16:10:33.330Z,37.46
2023-05-04T16:12:59.900Z,36.87
2023-05-04T16:15:26.758Z,37.20
2023-05-04T16:17:55.909Z,37.51
2023-05-04T16:20:22.960Z,37.63
2023-05-04T16:22:49.772Z,37.94
2023-05-04T16:25:17.953Z,38.60
2023-05-04T16:27:44.609Z,38.64
2023-05-04T16:30:11.979Z,38.11
2023-05-04T16:32:38.877Z,38.42
2023-05-04T16:35:06.986Z,38.79
2023-05-04T16:37:38.071Z,39.19
2023-05-04T16:40:17.049Z,38.67
2023-05-04T16:42:47.891Z,39.54
2023-05-04T16:45:16.730Z,39.64
2023-05-04T16:47:44.540Z,39.34
2023-05-04T16:50:12.508Z,40.49
2023-05-04T16:52:39.760Z,40.76
2023-05-04T16:55:11.892Z,41.27
2023-05-04T16:57:39.018Z,41.22
2023-05-04T17:00:06.655Z,41.12
2023-05-04T17:02:33.674Z,41.63
2023-05-04T17:05:00.364Z,42.91
2023-05-04T17:07:27.451Z,42.93
2023-05-04T17:09:57.506Z,43.24
2023-05-04T17:12:30.438Z,43.30
2023-05-04T17:14:58.406Z,43.68
2023-05-04T17:17:25.158Z,43.54
2023-05-04T17:19:54.422Z,44.27
2023-05-04T17:22:21.091Z,45.14
2023-05-04T17:24:47.747Z,45.55
2023-05-04T17:27:14.567Z,45.13
2023-05-04T17:29:42.878Z,46.80
2023-05-04T17:32:09.999Z,46.79
2023-05-04T17:34:37.563Z,48.27
2023-05-04T17:37:12.307Z,48.84
2023-05-04T17:39:39.473Z,48.43
2023-05-04T17:42:07.053Z,49.50
2023-05-04T17:44:34.457Z,50.15
2023-05-04T17:47:06.779Z,50.01
2023-05-04T17:49:34.842Z,50.59
2023-05-04T17:52:01.785Z,52.13
2023-05-04T17:54:32.978Z,51.63
2023-05-04T17:57:01.690Z,52.49
2023-05-04T17:59:52.474Z,54.92
2023-05-04T18:02:19.886Z,55.67
2023-05-04T18:04:47.124Z,55.91
2023-05-04T18:07:17.218Z,57.02
2023-05-04T18:09:48.807Z,58.57
2023-05-04T18:12:15.404Z,58.45
2023-05-04T18:14:47.053Z,57.33
2023-05-04T18:17:14.101Z,61.34
2023-05-04T18:19:41.200Z,61.29
2023-05-04T18:22:09.251Z,60.99
2023-05-04T18:24:35.854Z,63.56
2023-05-04T18:27:02.551Z,65.38
2023-05-04T18:29:29.622Z,64.15
2023-05-04T18:31:56.547Z,66.38
2023-05-04T18:34:24.671Z,66.49
2023-05-04T18:36:52.157Z,67.61
2023-05-04T18:39:18.821Z,71.36
2023-05-04T18:41:45.719Z,72.49
2023-05-04T18:44:12.837Z,73.35
2023-05-04T18:46:39.636Z,73.32
2023-05-04T18:49:07.634Z,75.19
2023-05-04T18:51:34.361Z,73.51
2023-05-04T18:54:01.315Z,74.84
2023-05-04T18:56:30.525Z,79.12
2023-05-04T18:58:57.360Z,78.25
2023-05-04T19:01:25.911Z,79.90
2023-05-04T19:03:53.567Z,82.00
2023-05-04T19:06:22.718Z,82.03
2023-05-04T19:08:49.727Z,83.91
2023-05-04T19:11:16.495Z,85.35
2023-05-04T19:13:43.256Z,86.06
2023-05-04T19:16:13.190Z,86.36
2023-05-04T19:18:40.400Z,86.11
2023-05-04T19:21:07.120Z,87.42
2023-05-04T19:23:33.636Z,88.02
2023-05-04T19:26:00.182Z,89.28
2023-05-04T19:28:26.715Z,89.56
2023-05-04T19:30:55.273Z,89.60
2023-05-04T19:33:36.377Z,91.13
2023-05-04T19:36:12.763Z,91.22
2023-05-04T19:38:40.232Z,95.17
2023-05-04T19:41:07.232Z,96.13
2023-05-04T19:43:34.021Z,97.75
2023-05-04T19:46:02.788Z,97.59
2023-05-04T19:48:29.303Z,100.00
2023-05-04T19:51:14.122Z,100.00
2023-05-04T19:53:40.664Z,100.00
2023-05-04T19:56:07.452Z,100.00
2023-05-04T19:58:34.051Z,100.00
2023-05-04T20:01:00.785Z,100.00
2023-05-04T20:03:27.447Z,100.00
2023-05-04T20:05:54.101Z,100.00
2023-05-04T20:08:21.400Z,100.00
2023-05-04T20:10:48.275Z,100.00
2023-05-04T20:13:14.787Z,100.00
2023-05-04T20:15:41.579Z,100.00
2023-05-04T20:18:08.098Z,100.00
2023-05-04T20:20:35.049Z,100.00
2023-05-04T20:23:01.576Z,100.00
2023-05-04T20:25:28.057Z,100.00
2023-05-04T20:27:54.551Z,100.00
2023-05-04T20:30:21.474Z,100.00
2023-05-04T20:32:49.291Z,100.00
2023-05-04T20:35:21.210Z,100.00
2023-05-04T20:37:47.735Z,100.00
2023-05-04T20:40:14.743Z,100.00
2023-05-04T20:42:41.235Z,100.00
2023-05-04T20:45:09.366Z,100.00
2023-05-04T20:47:36.102Z,100.00
2023-05-04T20:50:06.182Z,100.00
2023-05-04T20:52:33.002Z,100.00
2023-05-04T20:55:00.286Z,100.00
2023-05-04T20:57:27.045Z,100.00
2023-05-04T20:59:54.431Z,100.00
2023-05-04T21:02:21.792Z,100.00
2023-05-04T21:04:49.496Z,100.00
2023-05-04T21:07:16.245Z,100.00
2023-05-04T21:09:43.864Z,100.00
2023-05-04T21:12:10.390Z,100.00
2023-05-04T21:14:38.576Z,100.00
2023-05-04T21:17:05.130Z,100.00
2023-05-04T21:19:31.539Z,100.00
2023-05-04T21:21:58.157Z,100.00
2023-05-04T21:24:25.049Z,100.00
2023-05-04T21:26:52.969Z,100.00
2023-05-04T21:29:19.898Z,100.00
2023-05-04T21:31:46.816Z,100.00
2023-05-04T21:34:13.706Z,100.00
2023-05-04T21:36:40.574Z,100.00
2023-05-04T21:39:12.030Z,100.00
2023-05-04T21:41:38.824Z,100.00
2023-05-04T21:44:05.443Z,100.00
2023-05-04T21:46:32.263Z,100.00
2023-05-04T21:48:59.135Z,100.00
2023-05-04T21:51:25.750Z,100.00
2023-05-04T21:53:53.309Z,100.00
2023-05-04T21:56:20.067Z,100.00
2023-05-04T21:58:47.843Z,100.00
2023-05-04T22:01:18.098Z,100.00
2023-05-04T22:03:44.887Z,100.00
2023-05-04T22:06:11.670Z,100.00
2023-05-04T22:08:38.395Z,100.00
2023-05-04T22:11:05.481Z,100.00
2023-05-04T22:13:32.020Z,100.00
2023-05-04T22:15:58.844Z,100.00
2023-05-04T22:18:27.218Z,100.00
2023-05-04T22:20:53.725Z,100.00
2023-05-04T22:23:20.349Z,100.00
2023-05-04T22:25:46.898Z,100.00
2023-05-04T22:28:13.562Z,100.00
2023-05-04T22:30:40.801Z,100.00
2023-05-04T22:33:07.328Z,100.00
2023-05-04T22:35:41.572Z,100.00
2023-05-04T22:38:08.225Z,100.00
2023-05-04T22:40:34.745Z,100.00
2023-05-04T22:43:01.265Z,100.00
2023-05-04T22:45:28.341Z,100.00
2023-05-04T22:47:54.806Z,100.00
2023-05-04T22:50:21.402Z,100.00
2023-05-04T22:52:49.192Z,100.00
2023-05-04T22:55:16.030Z,100.00
2023-05-04T22:57:42.711Z,100.00
2023-05-04T23:00:10.189Z,100.00
2023-05-04T23:02:37.339Z,100.00
2023-05-04T23:05:04.230Z,100.00
2023-05-04T23:07:30.824Z,100.00
2023-05-04T23:09:57.724Z,100.00
2023-05-04T23:12:24.292Z,100.00
2023-05-04T23:14:51.577Z,100.00
2023-05-04T23:17:19.287Z,100.00
2023-05-04T23:19:46.199Z,100.00
2023-05-04T23:22:13.238Z,100.00
2023-05-04T23:24:39.725Z,100.00
2023-05-04T23:27:06.617Z,100.00
2023-05-04T23:29:33.101Z,100.00
2023-05-04T23:32:00.019Z,100.00
2023-05-04T23:34:26.853Z,100.00
2023-05-04T23:36:53.976Z,100.00
2023-05-04T23:39:21.023Z,100.00
2023-05-04T23:41:47.633Z,100.00
2023-05-04T23:44:14.698Z,100.00
2023-05-04T23:46:41.212Z,100.00
2023-05-04T23:49:07.608Z,100.00
2023-05-04T23:51:34.184Z,100.00
2023-05-04T23:54:00.718Z,100.00
2023-05-04T23:56:27.252Z,100.00
2023-05-04T23:58:54.033Z,100.00
